sensor_id;sensor_type;location;lat;lon;timestamp;temperature;humidity
42031;DHT22;27709;52.036;5.906;2023-04-03T00:02:23;3.20;99.90
42031;DHT22;27709;52.036;5.906;2023-04-03T00:04:48;3.20;99.90
42031;DHT22;27709;52.036;5.906;2023-04-03T00:07:14;3.20;99.90
42031;DHT22;27709;52.036;5.906;2023-04-03T00:09:40;3.20;99.90
42031;DHT22;27709;52.036;5.906;2023-04-03T00:12:05;3.20;99.90
42031;DHT22;27709;52.036;5.906;2023-04-03T00:14:31;3.20;99.90
42031;DHT22;27709;52.036;5.906;2023-04-03T00:16:56;3.20;99.90
42031;DHT22;27709;52.036;5.906;2023-04-03T00:19:22;3.10;99.90
42031;DHT22;27709;52.036;5.906;2023-04-03T00:21:47;3.10;99.90
42031;DHT22;27709;52.036;5.906;2023-04-03T00:24:12;3.10;99.90
42031;DHT22;27709;52.036;5.906;2023-04-03T00:26:38;3.00;99.90
42031;DHT22;27709;52.036;5.906;2023-04-03T00:29:03;2.90;99.90
42031;DHT22;27709;52.036;5.906;2023-04-03T00:31:29;2.90;99.90
42031;DHT22;27709;52.036;5.906;2023-04-03T00:33:54;2.90;99.90
42031;DHT22;27709;52.036;5.906;2023-04-03T00:36:20;2.90;99.90
42031;DHT22;27709;52.036;5.906;2023-04-03T00:38:47;2.90;99.90
42031;DHT22;27709;52.036;5.906;2023-04-03T00:41:13;2.80;99.90
42031;DHT22;27709;52.036;5.906;2023-04-03T00:43:39;2.80;99.90
42031;DHT22;27709;52.036;5.906;2023-04-03T00:46:06;2.80;99.90
42031;DHT22;27709;52.036;5.906;2023-04-03T00:50:57;2.70;99.90
42031;DHT22;27709;52.036;5.906;2023-04-03T00:53:28;2.70;99.90
42031;DHT22;27709;52.036;5.906;2023-04-03T00:55:56;2.60;99.90
42031;DHT22;27709;52.036;5.906;2023-04-03T00:58:22;2.60;99.90
42031;DHT22;27709;52.036;5.906;2023-04-03T01:00:52;2.60;99.90
42031;DHT22;27709;52.036;5.906;2023-04-03T01:03:21;2.50;99.90
42031;DHT22;27709;52.036;5.906;2023-04-03T01:05:47;2.50;99.90
42031;DHT22;27709;52.036;5.906;2023-04-03T01:08:12;2.50;99.90
42031;DHT22;27709;52.036;5.906;2023-04-03T01:10:38;2.50;99.90
42031;DHT22;27709;52.036;5.906;2023-04-03T01:13:16;2.50;99.90
42031;DHT22;27709;52.036;5.906;2023-04-03T01:15:42;2.50;99.90
42031;DHT22;27709;52.036;5.906;2023-04-03T01:18:09;2.50;99.90
42031;DHT22;27709;52.036;5.906;2023-04-03T01:25:36;2.30;99.90
42031;DHT22;27709;52.036;5.906;2023-04-03T01:28:02;2.30;99.90
42031;DHT22;27709;52.036;5.906;2023-04-03T01:30:30;2.30;99.90
42031;DHT22;27709;52.036;5.906;2023-04-03T01:32:56;2.20;99.90
42031;DHT22;27709;52.036;5.906;2023-04-03T01:35:22;2.10;99.90
42031;DHT22;27709;52.036;5.906;2023-04-03T01:37:48;2.10;99.90
42031;DHT22;27709;52.036;5.906;2023-04-03T01:40:13;2.10;99.90
42031;DHT22;27709;52.036;5.906;2023-04-03T01:42:38;2.00;99.90
42031;DHT22;27709;52.036;5.906;2023-04-03T01:45:04;2.10;99.90
42031;DHT22;27709;52.036;5.906;2023-04-03T01:47:30;2.10;99.90
42031;DHT22;27709;52.036;5.906;2023-04-03T01:49:55;2.00;99.90
42031;DHT22;27709;52.036;5.906;2023-04-03T01:52:21;2.10;99.90
42031;DHT22;27709;52.036;5.906;2023-04-03T01:54:46;2.00;99.90
42031;DHT22;27709;52.036;5.906;2023-04-03T01:57:12;2.00;99.90
42031;DHT22;27709;52.036;5.906;2023-04-03T01:59:38;1.90;99.90
42031;DHT22;27709;52.036;5.906;2023-04-03T02:02:04;1.90;99.90
42031;DHT22;27709;52.036;5.906;2023-04-03T02:04:29;1.90;99.90
42031;DHT22;27709;52.036;5.906;2023-04-03T02:06:55;1.90;99.90
42031;DHT22;27709;52.036;5.906;2023-04-03T02:09:20;1.80;99.90
42031;DHT22;27709;52.036;5.906;2023-04-03T02:11:46;1.90;99.90
42031;DHT22;27709;52.036;5.906;2023-04-03T02:14:11;1.80;99.90
42031;DHT22;27709;52.036;5.906;2023-04-03T02:16:36;1.90;99.90
42031;DHT22;27709;52.036;5.906;2023-04-03T02:19:02;1.80;99.90
42031;DHT22;27709;52.036;5.906;2023-04-03T02:21:28;1.70;99.90
42031;DHT22;27709;52.036;5.906;2023-04-03T02:23:53;1.70;99.90
42031;DHT22;27709;52.036;5.906;2023-04-03T02:26:19;1.60;99.90
42031;DHT22;27709;52.036;5.906;2023-04-03T02:28:45;1.60;99.90
42031;DHT22;27709;52.036;5.906;2023-04-03T02:31:11;1.60;99.90
42031;DHT22;27709;52.036;5.906;2023-04-03T02:33:36;1.60;99.90
42031;DHT22;27709;52.036;5.906;2023-04-03T02:36:02;1.60;99.90
42031;DHT22;27709;52.036;5.906;2023-04-03T02:38:28;1.60;99.90
42031;DHT22;27709;52.036;5.906;2023-04-03T02:40:59;1.50;99.90
42031;DHT22;27709;52.036;5.906;2023-04-03T02:43:24;1.50;99.90
42031;DHT22;27709;52.036;5.906;2023-04-03T02:45:50;1.50;99.90
42031;DHT22;27709;52.036;5.906;2023-04-03T02:48:15;1.60;99.90
42031;DHT22;27709;52.036;5.906;2023-04-03T02:50:41;1.60;99.90
42031;DHT22;27709;52.036;5.906;2023-04-03T02:53:07;1.50;99.90
42031;DHT22;27709;52.036;5.906;2023-04-03T02:55:32;1.50;99.90
42031;DHT22;27709;52.036;5.906;2023-04-03T02:57:58;1.50;99.90
42031;DHT22;27709;52.036;5.906;2023-04-03T03:00:23;1.50;99.90
42031;DHT22;27709;52.036;5.906;2023-04-03T03:02:49;1.50;99.90
42031;DHT22;27709;52.036;5.906;2023-04-03T03:05:14;1.50;99.90
42031;DHT22;27709;52.036;5.906;2023-04-03T03:07:40;1.40;99.90
42031;DHT22;27709;52.036;5.906;2023-04-03T03:10:05;1.40;99.90
42031;DHT22;27709;52.036;5.906;2023-04-03T03:12:32;1.40;99.90
42031;DHT22;27709;52.036;5.906;2023-04-03T03:14:57;1.40;99.90
42031;DHT22;27709;52.036;5.906;2023-04-03T03:17:23;1.30;99.90
42031;DHT22;27709;52.036;5.906;2023-04-03T03:19:48;1.20;99.90
42031;DHT22;27709;52.036;5.906;2023-04-03T03:22:14;1.20;99.90
42031;DHT22;27709;52.036;5.906;2023-04-03T03:24:39;1.20;99.90
42031;DHT22;27709;52.036;5.906;2023-04-03T03:27:05;1.10;99.90
42031;DHT22;27709;52.036;5.906;2023-04-03T03:29:30;1.10;99.90
42031;DHT22;27709;52.036;5.906;2023-04-03T03:31:56;1.10;99.90
42031;DHT22;27709;52.036;5.906;2023-04-03T03:34:21;1.10;99.90
42031;DHT22;27709;52.036;5.906;2023-04-03T03:36:47;1.10;99.90
42031;DHT22;27709;52.036;5.906;2023-04-03T03:39:12;1.10;99.90
42031;DHT22;27709;52.036;5.906;2023-04-03T03:41:38;1.00;99.90
42031;DHT22;27709;52.036;5.906;2023-04-03T03:44:03;1.10;99.90
42031;DHT22;27709;52.036;5.906;2023-04-03T03:46:29;1.00;99.90
42031;DHT22;27709;52.036;5.906;2023-04-03T03:48:54;1.00;99.90
42031;DHT22;27709;52.036;5.906;2023-04-03T03:51:20;1.00;99.90
42031;DHT22;27709;52.036;5.906;2023-04-03T03:53:45;1.10;99.90
42031;DHT22;27709;52.036;5.906;2023-04-03T03:56:11;1.00;99.90
42031;DHT22;27709;52.036;5.906;2023-04-03T03:58:36;1.00;99.90
42031;DHT22;27709;52.036;5.906;2023-04-03T04:01:05;0.90;99.90
42031;DHT22;27709;52.036;5.906;2023-04-03T04:03:31;0.90;99.90
42031;DHT22;27709;52.036;5.906;2023-04-03T04:05:57;1.00;99.90
42031;DHT22;27709;52.036;5.906;2023-04-03T04:08:23;1.00;99.90
42031;DHT22;27709;52.036;5.906;2023-04-03T04:10:48;1.00;99.90
42031;DHT22;27709;52.036;5.906;2023-04-03T04:13:14;1.00;99.90
42031;DHT22;27709;52.036;5.906;2023-04-03T04:15:39;1.00;99.90
42031;DHT22;27709;52.036;5.906;2023-04-03T04:18:05;0.90;99.90
42031;DHT22;27709;52.036;5.906;2023-04-03T04:20:31;0.80;99.90
42031;DHT22;27709;52.036;5.906;2023-04-03T04:22:56;0.80;99.90
42031;DHT22;27709;52.036;5.906;2023-04-03T04:25:21;0.70;99.90
42031;DHT22;27709;52.036;5.906;2023-04-03T04:27:47;0.70;99.90
42031;DHT22;27709;52.036;5.906;2023-04-03T04:30:12;0.60;99.90
42031;DHT22;27709;52.036;5.906;2023-04-03T04:32:38;0.60;99.90
42031;DHT22;27709;52.036;5.906;2023-04-03T04:35:04;0.60;99.90
42031;DHT22;27709;52.036;5.906;2023-04-03T04:37:30;0.60;99.90
42031;DHT22;27709;52.036;5.906;2023-04-03T04:39:55;0.60;99.90
42031;DHT22;27709;52.036;5.906;2023-04-03T04:42:21;0.70;99.90
42031;DHT22;27709;52.036;5.906;2023-04-03T04:44:46;0.80;99.90
42031;DHT22;27709;52.036;5.906;2023-04-03T04:47:11;0.90;99.90
42031;DHT22;27709;52.036;5.906;2023-04-03T04:49:37;0.80;99.90
42031;DHT22;27709;52.036;5.906;2023-04-03T04:52:02;0.80;99.90
42031;DHT22;27709;52.036;5.906;2023-04-03T04:54:28;0.80;99.90
42031;DHT22;27709;52.036;5.906;2023-04-03T04:56:53;0.80;99.90
42031;DHT22;27709;52.036;5.906;2023-04-03T04:59:19;0.80;99.90
42031;DHT22;27709;52.036;5.906;2023-04-03T05:01:45;0.80;99.90
42031;DHT22;27709;52.036;5.906;2023-04-03T05:04:10;0.80;99.90
42031;DHT22;27709;52.036;5.906;2023-04-03T05:06:37;0.70;99.90
42031;DHT22;27709;52.036;5.906;2023-04-03T05:09:03;0.70;99.90
42031;DHT22;27709;52.036;5.906;2023-04-03T05:11:29;0.70;99.90
42031;DHT22;27709;52.036;5.906;2023-04-03T05:13:55;0.70;99.90
42031;DHT22;27709;52.036;5.906;2023-04-03T05:16:20;0.70;99.90
42031;DHT22;27709;52.036;5.906;2023-04-03T05:18:46;0.70;99.90
42031;DHT22;27709;52.036;5.906;2023-04-03T05:21:11;0.80;99.90
42031;DHT22;27709;52.036;5.906;2023-04-03T05:23:37;1.00;99.90
42031;DHT22;27709;52.036;5.906;2023-04-03T05:26:02;1.00;99.90
42031;DHT22;27709;52.036;5.906;2023-04-03T05:28:28;0.90;99.90
42031;DHT22;27709;52.036;5.906;2023-04-03T05:30:56;0.90;99.90
42031;DHT22;27709;52.036;5.906;2023-04-03T05:33:23;0.90;99.90
42031;DHT22;27709;52.036;5.906;2023-04-03T05:35:48;0.90;99.90
42031;DHT22;27709;52.036;5.906;2023-04-03T05:38:14;1.00;99.90
42031;DHT22;27709;52.036;5.906;2023-04-03T05:40:40;1.30;99.90
42031;DHT22;27709;52.036;5.906;2023-04-03T05:43:05;1.50;99.90
42031;DHT22;27709;52.036;5.906;2023-04-03T05:45:31;1.60;99.90
42031;DHT22;27709;52.036;5.906;2023-04-03T05:47:56;1.70;99.90
42031;DHT22;27709;52.036;5.906;2023-04-03T05:50:22;1.90;99.90
42031;DHT22;27709;52.036;5.906;2023-04-03T05:52:48;1.80;99.90
42031;DHT22;27709;52.036;5.906;2023-04-03T05:55:14;1.80;99.90
42031;DHT22;27709;52.036;5.906;2023-04-03T05:57:40;1.70;99.90
42031;DHT22;27709;52.036;5.906;2023-04-03T06:00:06;1.80;99.90
42031;DHT22;27709;52.036;5.906;2023-04-03T06:02:31;1.90;99.90
42031;DHT22;27709;52.036;5.906;2023-04-03T06:04:57;2.10;99.90
42031;DHT22;27709;52.036;5.906;2023-04-03T06:07:24;2.20;99.90
42031;DHT22;27709;52.036;5.906;2023-04-03T06:09:53;2.30;99.90
42031;DHT22;27709;52.036;5.906;2023-04-03T06:12:19;2.50;99.90
42031;DHT22;27709;52.036;5.906;2023-04-03T06:14:45;2.70;99.90
42031;DHT22;27709;52.036;5.906;2023-04-03T06:17:10;2.80;99.90
42031;DHT22;27709;52.036;5.906;2023-04-03T06:19:37;2.90;99.90
42031;DHT22;27709;52.036;5.906;2023-04-03T06:22:03;3.00;99.90
42031;DHT22;27709;52.036;5.906;2023-04-03T06:24:28;3.00;99.90
42031;DHT22;27709;52.036;5.906;2023-04-03T06:26:54;3.20;99.90
42031;DHT22;27709;52.036;5.906;2023-04-03T06:29:20;3.40;99.90
42031;DHT22;27709;52.036;5.906;2023-04-03T06:31:46;3.50;99.90
42031;DHT22;27709;52.036;5.906;2023-04-03T06:34:12;3.80;99.90
42031;DHT22;27709;52.036;5.906;2023-04-03T06:36:38;4.00;99.90
42031;DHT22;27709;52.036;5.906;2023-04-03T06:39:03;4.10;99.90
42031;DHT22;27709;52.036;5.906;2023-04-03T06:41:29;4.10;99.90
42031;DHT22;27709;52.036;5.906;2023-04-03T06:43:55;4.10;99.90
42031;DHT22;27709;52.036;5.906;2023-04-03T06:46:23;4.00;99.90
42031;DHT22;27709;52.036;5.906;2023-04-03T06:48:49;4.10;99.90
42031;DHT22;27709;52.036;5.906;2023-04-03T06:51:19;4.20;99.90
42031;DHT22;27709;52.036;5.906;2023-04-03T06:53:46;4.30;99.90
42031;DHT22;27709;52.036;5.906;2023-04-03T06:56:12;4.30;99.90
42031;DHT22;27709;52.036;5.906;2023-04-03T06:58:38;4.40;99.90
42031;DHT22;27709;52.036;5.906;2023-04-03T07:01:03;4.50;99.90
42031;DHT22;27709;52.036;5.906;2023-04-03T07:03:29;4.70;99.90
42031;DHT22;27709;52.036;5.906;2023-04-03T07:05:55;4.80;99.90
42031;DHT22;27709;52.036;5.906;2023-04-03T07:08:20;4.70;99.90
42031;DHT22;27709;52.036;5.906;2023-04-03T07:10:46;4.80;99.90
42031;DHT22;27709;52.036;5.906;2023-04-03T07:13:13;4.90;99.90
42031;DHT22;27709;52.036;5.906;2023-04-03T07:15:47;4.90;99.90
42031;DHT22;27709;52.036;5.906;2023-04-03T07:18:13;4.90;99.90
42031;DHT22;27709;52.036;5.906;2023-04-03T07:20:39;5.30;99.90
42031;DHT22;27709;52.036;5.906;2023-04-03T07:23:05;5.80;99.90
42031;DHT22;27709;52.036;5.906;2023-04-03T07:25:31;6.50;99.90
42031;DHT22;27709;52.036;5.906;2023-04-03T07:27:57;7.10;99.90
42031;DHT22;27709;52.036;5.906;2023-04-03T07:30:23;7.50;99.90
42031;DHT22;27709;52.036;5.906;2023-04-03T07:32:48;7.90;99.90
42031;DHT22;27709;52.036;5.906;2023-04-03T07:35:14;8.30;99.80
42031;DHT22;27709;52.036;5.906;2023-04-03T07:37:39;8.80;99.70
42031;DHT22;27709;52.036;5.906;2023-04-03T07:40:06;9.10;98.50
42031;DHT22;27709;52.036;5.906;2023-04-03T07:42:32;9.40;97.40
42031;DHT22;27709;52.036;5.906;2023-04-03T07:44:57;9.60;96.90
42031;DHT22;27709;52.036;5.906;2023-04-03T07:47:22;9.70;95.50
42031;DHT22;27709;52.036;5.906;2023-04-03T07:49:48;9.80;95.30
42031;DHT22;27709;52.036;5.906;2023-04-03T07:52:14;10.10;95.00
42031;DHT22;27709;52.036;5.906;2023-04-03T07:54:40;10.40;94.50
42031;DHT22;27709;52.036;5.906;2023-04-03T07:57:06;10.60;94.00
42031;DHT22;27709;52.036;5.906;2023-04-03T07:59:31;10.90;93.90
42031;DHT22;27709;52.036;5.906;2023-04-03T08:01:57;11.10;92.20
42031;DHT22;27709;52.036;5.906;2023-04-03T08:04:23;11.20;90.70
42031;DHT22;27709;52.036;5.906;2023-04-03T08:06:48;11.20;90.50
42031;DHT22;27709;52.036;5.906;2023-04-03T08:09:14;11.10;82.20
42031;DHT22;27709;52.036;5.906;2023-04-03T08:11:40;10.90;84.00
42031;DHT22;27709;52.036;5.906;2023-04-03T08:14:05;10.90;83.20
42031;DHT22;27709;52.036;5.906;2023-04-03T08:16:31;11.00;77.50
42031;DHT22;27709;52.036;5.906;2023-04-03T08:18:56;10.90;74.80
42031;DHT22;27709;52.036;5.906;2023-04-03T08:21:22;11.00;75.20
42031;DHT22;27709;52.036;5.906;2023-04-03T08:23:49;11.10;77.00
42031;DHT22;27709;52.036;5.906;2023-04-03T08:26:16;11.40;75.30
42031;DHT22;27709;52.036;5.906;2023-04-03T08:28:43;11.60;72.80
42031;DHT22;27709;52.036;5.906;2023-04-03T08:31:10;11.80;68.50
42031;DHT22;27709;52.036;5.906;2023-04-03T08:33:37;11.80;70.10
42031;DHT22;27709;52.036;5.906;2023-04-03T08:36:20;11.70;64.50
42031;DHT22;27709;52.036;5.906;2023-04-03T08:38:46;11.40;67.00
42031;DHT22;27709;52.036;5.906;2023-04-03T08:46:31;11.30;62.00
42031;DHT22;27709;52.036;5.906;2023-04-03T08:49:01;11.30;60.50
42031;DHT22;27709;52.036;5.906;2023-04-03T08:51:27;11.20;58.10
42031;DHT22;27709;52.036;5.906;2023-04-03T08:54:02;11.30;59.40
42031;DHT22;27709;52.036;5.906;2023-04-03T08:56:31;11.40;61.00
42031;DHT22;27709;52.036;5.906;2023-04-03T08:59:00;11.50;59.10
42031;DHT22;27709;52.036;5.906;2023-04-03T09:01:43;11.50;55.40
42031;DHT22;27709;52.036;5.906;2023-04-03T09:04:12;11.50;52.40
42031;DHT22;27709;52.036;5.906;2023-04-03T09:06:49;11.50;53.40
42031;DHT22;27709;52.036;5.906;2023-04-03T09:17:55;12.30;54.20
42031;DHT22;27709;52.036;5.906;2023-04-03T09:23:51;12.60;51.20
42031;DHT22;27709;52.036;5.906;2023-04-03T09:28:46;12.30;46.70
42031;DHT22;27709;52.036;5.906;2023-04-03T09:31:29;12.00;49.30
42031;DHT22;27709;52.036;5.906;2023-04-03T09:34:00;12.00;52.30
42031;DHT22;27709;52.036;5.906;2023-04-03T09:39:27;12.20;49.80
42031;DHT22;27709;52.036;5.906;2023-04-03T09:42:29;12.20;49.20
42031;DHT22;27709;52.036;5.906;2023-04-03T09:48:34;11.50;46.50
42031;DHT22;27709;52.036;5.906;2023-04-03T09:51:02;11.30;46.30
42031;DHT22;27709;52.036;5.906;2023-04-03T09:53:37;11.40;49.80
42031;DHT22;27709;52.036;5.906;2023-04-03T09:56:30;11.60;50.00
42031;DHT22;27709;52.036;5.906;2023-04-03T10:09:13;12.30;46.40
42031;DHT22;27709;52.036;5.906;2023-04-03T10:14:58;12.20;46.40
42031;DHT22;27709;52.036;5.906;2023-04-03T10:28:52;12.20;52.00
42031;DHT22;27709;52.036;5.906;2023-04-03T10:31:31;12.20;53.60
42031;DHT22;27709;52.036;5.906;2023-04-03T10:36:40;12.50;49.50
42031;DHT22;27709;52.036;5.906;2023-04-03T10:44:44;12.10;51.40
42031;DHT22;27709;52.036;5.906;2023-04-03T10:47:15;12.10;51.80
42031;DHT22;27709;52.036;5.906;2023-04-03T10:57:38;11.30;52.60
42031;DHT22;27709;52.036;5.906;2023-04-03T11:00:06;11.30;52.70
42031;DHT22;27709;52.036;5.906;2023-04-03T11:02:56;11.20;52.60
42031;DHT22;27709;52.036;5.906;2023-04-03T11:05:45;11.20;53.20
42031;DHT22;27709;52.036;5.906;2023-04-03T11:08:56;11.20;52.60
42031;DHT22;27709;52.036;5.906;2023-04-03T11:11:09;11.30;54.10
42031;DHT22;27709;52.036;5.906;2023-04-03T11:13:45;11.40;53.80
42031;DHT22;27709;52.036;5.906;2023-04-03T11:16:17;11.40;52.90
42031;DHT22;27709;52.036;5.906;2023-04-03T11:18:47;11.40;51.40
42031;DHT22;27709;52.036;5.906;2023-04-03T11:39:16;10.90;51.70
42031;DHT22;27709;52.036;5.906;2023-04-03T11:47:48;10.80;54.10
42031;DHT22;27709;52.036;5.906;2023-04-03T12:01:10;11.30;52.10
42031;DHT22;27709;52.036;5.906;2023-04-03T12:08:57;10.80;52.40
42031;DHT22;27709;52.036;5.906;2023-04-03T12:11:28;10.70;52.90
42031;DHT22;27709;52.036;5.906;2023-04-03T12:18:56;10.90;52.30
42031;DHT22;27709;52.036;5.906;2023-04-03T12:24:35;11.00;53.10
42031;DHT22;27709;52.036;5.906;2023-04-03T12:27:25;10.80;52.50
42031;DHT22;27709;52.036;5.906;2023-04-03T12:30:25;10.70;52.60
42031;DHT22;27709;52.036;5.906;2023-04-03T12:32:56;10.60;57.40
42031;DHT22;27709;52.036;5.906;2023-04-03T12:35:28;10.90;55.10
42031;DHT22;27709;52.036;5.906;2023-04-03T12:43:10;11.10;53.70
42031;DHT22;27709;52.036;5.906;2023-04-03T12:48:39;11.00;56.40
42031;DHT22;27709;52.036;5.906;2023-04-03T12:51:27;11.00;56.00
42031;DHT22;27709;52.036;5.906;2023-04-03T12:54:02;11.10;57.30
42031;DHT22;27709;52.036;5.906;2023-04-03T12:56:44;11.30;54.90
42031;DHT22;27709;52.036;5.906;2023-04-03T12:59:27;11.20;54.20
42031;DHT22;27709;52.036;5.906;2023-04-03T13:02:10;11.20;55.70
42031;DHT22;27709;52.036;5.906;2023-04-03T13:04:39;11.10;55.40
42031;DHT22;27709;52.036;5.906;2023-04-03T13:07:17;11.00;55.50
42031;DHT22;27709;52.036;5.906;2023-04-03T13:09:54;10.90;54.90
42031;DHT22;27709;52.036;5.906;2023-04-03T13:12:20;10.90;56.50
42031;DHT22;27709;52.036;5.906;2023-04-03T13:14:56;10.90;54.80
42031;DHT22;27709;52.036;5.906;2023-04-03T13:17:28;10.80;54.70
42031;DHT22;27709;52.036;5.906;2023-04-03T13:20:09;10.70;54.80
42031;DHT22;27709;52.036;5.906;2023-04-03T13:25:16;10.50;55.60
42031;DHT22;27709;52.036;5.906;2023-04-03T13:27:49;10.60;58.60
42031;DHT22;27709;52.036;5.906;2023-04-03T13:30:34;10.70;58.00
42031;DHT22;27709;52.036;5.906;2023-04-03T13:33:05;10.60;56.90
42031;DHT22;27709;52.036;5.906;2023-04-03T13:35:35;10.60;58.00
42031;DHT22;27709;52.036;5.906;2023-04-03T13:38:06;10.70;60.70
42031;DHT22;27709;52.036;5.906;2023-04-03T13:40:47;10.80;57.20
42031;DHT22;27709;52.036;5.906;2023-04-03T13:43:20;10.70;58.20
42031;DHT22;27709;52.036;5.906;2023-04-03T13:48:40;10.60;58.20
42031;DHT22;27709;52.036;5.906;2023-04-03T13:53:45;10.60;59.70
42031;DHT22;27709;52.036;5.906;2023-04-03T13:56:19;10.60;57.20
42031;DHT22;27709;52.036;5.906;2023-04-03T13:59:04;10.50;58.00
42031;DHT22;27709;52.036;5.906;2023-04-03T14:01:37;10.60;60.90
42031;DHT22;27709;52.036;5.906;2023-04-03T14:04:20;10.70;59.60
42031;DHT22;27709;52.036;5.906;2023-04-03T14:07:04;10.70;56.50
42031;DHT22;27709;52.036;5.906;2023-04-03T14:09:29;10.40;57.00
42031;DHT22;27709;52.036;5.906;2023-04-03T14:11:57;10.20;58.40
42031;DHT22;27709;52.036;5.906;2023-04-03T14:14:26;10.20;60.90
42031;DHT22;27709;52.036;5.906;2023-04-03T14:16:53;10.40;60.10
42031;DHT22;27709;52.036;5.906;2023-04-03T14:19:21;10.30;57.40
42031;DHT22;27709;52.036;5.906;2023-04-03T14:21:47;10.20;59.20
42031;DHT22;27709;52.036;5.906;2023-04-03T14:24:12;10.20;62.40
42031;DHT22;27709;52.036;5.906;2023-04-03T14:26:38;10.40;61.40
42031;DHT22;27709;52.036;5.906;2023-04-03T14:29:04;10.50;59.90
42031;DHT22;27709;52.036;5.906;2023-04-03T14:31:29;10.40;58.90
42031;DHT22;27709;52.036;5.906;2023-04-03T14:33:55;10.30;61.30
42031;DHT22;27709;52.036;5.906;2023-04-03T14:36:22;10.30;58.90
42031;DHT22;27709;52.036;5.906;2023-04-03T14:38:54;10.30;60.20
42031;DHT22;27709;52.036;5.906;2023-04-03T14:41:21;10.40;59.40
42031;DHT22;27709;52.036;5.906;2023-04-03T14:43:48;10.30;56.90
42031;DHT22;27709;52.036;5.906;2023-04-03T14:46:14;10.10;57.70
42031;DHT22;27709;52.036;5.906;2023-04-03T14:48:41;10.00;59.10
42031;DHT22;27709;52.036;5.906;2023-04-03T14:51:06;10.00;59.50
42031;DHT22;27709;52.036;5.906;2023-04-03T14:53:32;10.10;58.10
42031;DHT22;27709;52.036;5.906;2023-04-03T14:55:57;10.00;59.80
42031;DHT22;27709;52.036;5.906;2023-04-03T14:58:23;9.90;59.20
42031;DHT22;27709;52.036;5.906;2023-04-03T15:00:49;9.80;61.00
42031;DHT22;27709;52.036;5.906;2023-04-03T15:03:15;9.80;60.70
42031;DHT22;27709;52.036;5.906;2023-04-03T15:05:41;9.80;61.50
42031;DHT22;27709;52.036;5.906;2023-04-03T15:08:40;9.70;60.30
42031;DHT22;27709;52.036;5.906;2023-04-03T15:10:58;9.70;60.50
42031;DHT22;27709;52.036;5.906;2023-04-03T15:13:24;9.60;61.20
42031;DHT22;27709;52.036;5.906;2023-04-03T15:15:53;9.60;60.60
42031;DHT22;27709;52.036;5.906;2023-04-03T15:18:23;9.60;62.20
42031;DHT22;27709;52.036;5.906;2023-04-03T15:20:51;9.50;61.60
42031;DHT22;27709;52.036;5.906;2023-04-03T15:23:17;9.50;62.40
42031;DHT22;27709;52.036;5.906;2023-04-03T15:25:43;9.60;63.30
42031;DHT22;27709;52.036;5.906;2023-04-03T15:28:23;9.60;65.00
42031;DHT22;27709;52.036;5.906;2023-04-03T15:30:50;9.70;63.90
42031;DHT22;27709;52.036;5.906;2023-04-03T15:33:16;9.60;62.50
42031;DHT22;27709;52.036;5.906;2023-04-03T15:35:41;9.60;63.70
42031;DHT22;27709;52.036;5.906;2023-04-03T15:38:08;9.60;63.20
42031;DHT22;27709;52.036;5.906;2023-04-03T15:40:37;9.60;64.20
42031;DHT22;27709;52.036;5.906;2023-04-03T15:43:04;9.60;63.30
42031;DHT22;27709;52.036;5.906;2023-04-03T15:45:29;9.60;63.50
42031;DHT22;27709;52.036;5.906;2023-04-03T15:47:55;9.60;63.00
42031;DHT22;27709;52.036;5.906;2023-04-03T15:50:21;9.60;63.50
42031;DHT22;27709;52.036;5.906;2023-04-03T15:52:49;9.60;64.90
42031;DHT22;27709;52.036;5.906;2023-04-03T15:55:23;9.50;63.60
42031;DHT22;27709;52.036;5.906;2023-04-03T15:57:48;9.50;63.50
42031;DHT22;27709;52.036;5.906;2023-04-03T16:00:14;9.40;63.20
42031;DHT22;27709;52.036;5.906;2023-04-03T16:02:40;9.40;64.00
42031;DHT22;27709;52.036;5.906;2023-04-03T16:05:06;9.40;64.10
42031;DHT22;27709;52.036;5.906;2023-04-03T16:07:32;9.40;65.30
42031;DHT22;27709;52.036;5.906;2023-04-03T16:09:59;9.30;64.90
42031;DHT22;27709;52.036;5.906;2023-04-03T16:12:24;9.30;65.10
42031;DHT22;27709;52.036;5.906;2023-04-03T16:14:50;9.30;65.60
42031;DHT22;27709;52.036;5.906;2023-04-03T16:17:16;9.30;65.80
42031;DHT22;27709;52.036;5.906;2023-04-03T16:19:42;9.20;65.70
42031;DHT22;27709;52.036;5.906;2023-04-03T16:22:07;9.30;65.80
42031;DHT22;27709;52.036;5.906;2023-04-03T16:24:33;9.20;65.80
42031;DHT22;27709;52.036;5.906;2023-04-03T16:26:58;9.10;66.20
42031;DHT22;27709;52.036;5.906;2023-04-03T16:29:24;9.10;65.80
42031;DHT22;27709;52.036;5.906;2023-04-03T16:31:50;9.10;66.30
42031;DHT22;27709;52.036;5.906;2023-04-03T16:34:17;9.00;65.80
42031;DHT22;27709;52.036;5.906;2023-04-03T16:36:43;8.90;66.80
42031;DHT22;27709;52.036;5.906;2023-04-03T16:39:18;8.90;66.90
42031;DHT22;27709;52.036;5.906;2023-04-03T16:41:43;8.90;67.80
42031;DHT22;27709;52.036;5.906;2023-04-03T16:44:10;8.90;67.50
42031;DHT22;27709;52.036;5.906;2023-04-03T16:46:36;8.90;67.50
42031;DHT22;27709;52.036;5.906;2023-04-03T16:49:01;8.80;67.50
42031;DHT22;27709;52.036;5.906;2023-04-03T16:51:27;8.80;67.30
42031;DHT22;27709;52.036;5.906;2023-04-03T16:53:52;8.80;67.80
42031;DHT22;27709;52.036;5.906;2023-04-03T16:56:18;8.80;67.90
42031;DHT22;27709;52.036;5.906;2023-04-03T16:58:43;8.70;66.20
42031;DHT22;27709;52.036;5.906;2023-04-03T17:01:13;8.60;67.40
42031;DHT22;27709;52.036;5.906;2023-04-03T17:03:39;8.60;69.00
42031;DHT22;27709;52.036;5.906;2023-04-03T17:06:05;8.60;69.10
42031;DHT22;27709;52.036;5.906;2023-04-03T17:08:31;8.70;69.70
42031;DHT22;27709;52.036;5.906;2023-04-03T17:10:56;8.60;69.70
42031;DHT22;27709;52.036;5.906;2023-04-03T17:13:22;8.60;68.60
42031;DHT22;27709;52.036;5.906;2023-04-03T17:15:47;8.50;68.20
42031;DHT22;27709;52.036;5.906;2023-04-03T17:18:13;8.40;67.90
42031;DHT22;27709;52.036;5.906;2023-04-03T17:20:38;8.30;68.70
42031;DHT22;27709;52.036;5.906;2023-04-03T17:23:04;8.20;68.30
42031;DHT22;27709;52.036;5.906;2023-04-03T17:25:30;8.20;68.60
42031;DHT22;27709;52.036;5.906;2023-04-03T17:27:55;8.10;68.60
42031;DHT22;27709;52.036;5.906;2023-04-03T17:30:21;8.10;70.20
42031;DHT22;27709;52.036;5.906;2023-04-03T17:32:47;8.00;70.70
42031;DHT22;27709;52.036;5.906;2023-04-03T17:35:12;8.00;69.40
42031;DHT22;27709;52.036;5.906;2023-04-03T17:37:38;7.90;69.60
42031;DHT22;27709;52.036;5.906;2023-04-03T17:40:03;7.80;69.50
42031;DHT22;27709;52.036;5.906;2023-04-03T17:42:29;7.70;70.50
42031;DHT22;27709;52.036;5.906;2023-04-03T17:44:55;7.70;70.90
42031;DHT22;27709;52.036;5.906;2023-04-03T17:47:21;7.70;72.20
42031;DHT22;27709;52.036;5.906;2023-04-03T17:49:46;7.60;71.60
42031;DHT22;27709;52.036;5.906;2023-04-03T17:52:12;7.50;71.30
42031;DHT22;27709;52.036;5.906;2023-04-03T17:54:37;7.40;71.80
42031;DHT22;27709;52.036;5.906;2023-04-03T17:57:03;7.30;71.90
42031;DHT22;27709;52.036;5.906;2023-04-03T17:59:28;7.30;72.20
42031;DHT22;27709;52.036;5.906;2023-04-03T18:01:54;7.20;72.60
42031;DHT22;27709;52.036;5.906;2023-04-03T18:04:20;7.10;72.30
42031;DHT22;27709;52.036;5.906;2023-04-03T18:06:50;7.00;72.50